Grants Pass, OR

12:47 PM PDT on September 01, 2015 (GMT -0700)
Jerome Prairie | | Change Station
CLOSE
Current Station
Personal Weather Station
Location: Grants Pass, OR
Elevation: 1144 ft
Nearby Weather Stations

Elev 1144 ft 42.40 °N, 123.43 °W | Updated 14 seconds ago

Clear
Clear
82.8 °F
Feels Like 82.8 °F
N
3.1
Wind Variable Wind from WNW
Gusts 6.9 mph

Today
High -- | Low -- °F
--% Chance of Precip.
Yesterday
High -- | Low -- °F
Precip. -- in
6:38 AM 7:47 PM
Waning Gibbous, 87% visible
Pressure 29.88 in
Visibility 10.0 miles
Clouds Clear
Dew Point 56.0 °F
Humidity 40%
Rainfall 0.00 in
Snow Depth Not available.
UV 8 out of 12
Pollen 6.00 out of 12
Air Quality Not available.
Flu Activity Not available.
METAR KMFR 011853Z 30006KT 10SM CLR 23/10 A2991 RMK AO2 SLP118 T02330100
Pressure 29.88 in
Visibility 10.0 miles
Clouds Clear
Dew Point 56.0 °F
Humidity 40%
Rainfall 0.00 in
Snow Depth Not available.
UV 8 out of 12
Pollen 6.00 out of 12
Air Quality Not available.
Flu Activity Not available.
METAR KMFR 011853Z 30006KT 10SM CLR 23/10 A2991 RMK AO2 SLP118 T02330100

10-Day Weather Forecast

×

Almanac

Astronomy

Sep. 01, 2015 Rise Set
Actual Time
Civil Twilight
Nautical Twilight
Astronomical Twilight
Moon
Length of Visible Light
Length of Day
Tomorrow will be .
, % of the Moon is Illuminated

Today's Extremes

State Highs State Lows

Community

WunderPhotos

Upload Photos

1,851,597 photos uploaded!

WunderBlogs® & News

Nearby

Air Quality

  Air Quality AQ Index Pollutant
Not available.

Snow Depth

Station Depth Elevation

Earthquake Activity

City Distance Mag. Time & Date
Minimum magnitude displayed is 2.5.

Coastal Water Temperatures

Place Temperature

Stations

Nearby Weather Stations

Station Location Temp. Windchill Dew Point Humidity Wind Precip. Elev Updated Type